Time;durP1;ratioP1;P1;durP2;ratioP2;P2;SDS_P1;SDS_P2;PMS_P1;PMS_P2;Temp;Humidity;BMP_temperature;BMP_pressure;BME280_temperature;BME280_humidity;BME280_pressure;Samples;Min_cycle;Max_cycle;Signal;HPM_P1;HPM_P2
2023/10/29 00:00:33;;;;;;;4.35;0.90;;;13.00;99.90;;;;;;5055815;28;20029;-36
2023/10/29 00:02:58;;;;;;;2.72;0.70;;;13.00;99.90;;;;;;5055853;28;20033;-37
2023/10/29 00:05:24;;;;;;;2.13;0.65;;;13.00;99.90;;;;;;5054076;28;20501;-39
2023/10/29 00:07:50;;;;;;;2.45;0.90;;;13.00;99.90;;;;;;5055796;28;20029;-39
2023/10/29 00:10:16;;;;;;;1.90;1.02;;;13.00;99.90;;;;;;5039566;28;20055;-38
2023/10/29 00:12:42;;;;;;;3.15;1.13;;;13.00;99.90;;;;;;5035719;28;20508;-37
2023/10/29 00:15:08;;;;;;;1.45;0.70;;;13.00;99.90;;;;;;5035713;28;20056;-38
2023/10/29 00:17:34;;;;;;;1.05;0.50;;;13.10;99.90;;;;;;5042863;28;20469;-38
2023/10/29 00:20:00;;;;;;;1.20;0.57;;;13.10;99.90;;;;;;5054770;28;20033;-38
2023/10/29 00:22:28;;;;;;;1.42;1.00;;;13.00;99.90;;;;;;5055490;28;20138;-38
2023/10/29 00:24:54;;;;;;;1.13;0.57;;;13.10;99.90;;;;;;5037849;28;20048;-38
2023/10/29 00:27:20;;;;;;;1.80;0.47;;;13.10;99.90;;;;;;5055416;28;20029;-40
2023/10/29 00:29:46;;;;;;;6.57;1.23;;;13.10;99.90;;;;;;5055243;28;20032;-40
2023/10/29 00:32:13;;;;;;;6.60;0.80;;;13.10;99.90;;;;;;5055316;28;20481;-37
2023/10/29 00:34:38;;;;;;;9.23;0.95;;;13.10;99.90;;;;;;5053525;28;20024;-37
2023/10/29 00:37:04;;;;;;;1.15;0.85;;;13.20;99.90;;;;;;5050140;28;20323;-39
2023/10/29 00:39:30;;;;;;;1.95;0.70;;;13.20;99.90;;;;;;5035280;28;20080;-41
2023/10/29 00:41:56;;;;;;;6.90;0.88;;;13.20;99.90;;;;;;5035077;28;20433;-38
2023/10/29 00:44:22;;;;;;;1.85;0.73;;;13.20;99.90;;;;;;5035140;28;20064;-38
2023/10/29 00:46:48;;;;;;;0.82;0.60;;;13.20;99.90;;;;;;5035435;28;20525;-59
2023/10/29 00:49:13;;;;;;;1.85;0.68;;;13.20;99.90;;;;;;5038810;28;20485;-38
2023/10/29 00:51:40;;;;;;;5.57;1.95;;;13.20;99.90;;;;;;5054937;28;20025;-39
2023/10/29 00:54:07;;;;;;;0.93;0.70;;;13.30;99.90;;;;;;5054035;28;20025;-39
2023/10/29 00:56:33;;;;;;;5.03;0.77;;;13.30;99.90;;;;;;5037049;28;20059;-37
2023/10/29 00:59:00;;;;;;;4.03;1.00;;;13.30;99.90;;;;;;5054803;28;20036;-38
2023/10/29 01:01:26;;;;;;;3.40;0.70;;;13.30;99.90;;;;;;5054654;28;20499;-58
2023/10/29 01:03:51;;;;;;;2.88;1.25;;;13.40;99.90;;;;;;5054775;28;20025;-38
2023/10/29 01:06:18;;;;;;;1.95;0.75;;;13.40;99.90;;;;;;5049637;28;20025;-39
2023/10/29 01:08:44;;;;;;;2.25;0.85;;;13.40;99.90;;;;;;5034382;28;20040;-38
2023/10/29 01:11:09;;;;;;;1.02;0.65;;;13.40;99.90;;;;;;5034179;28;20056;-39
2023/10/29 01:13:35;;;;;;;2.95;1.38;;;13.50;99.90;;;;;;5037035;28;20026;-38
2023/10/29 01:16:04;;;;;;;2.10;0.47;;;13.40;99.90;;;;;;5054503;28;20090;-39
2023/10/29 01:18:31;;;;;;;3.53;1.20;;;13.50;99.90;;;;;;5054419;28;20021;-39
2023/10/29 01:20:57;;;;;;;1.90;0.50;;;13.50;99.90;;;;;;5050654;28;20017;-38
2023/10/29 01:23:23;;;;;;;1.70;0.63;;;13.50;99.90;;;;;;5054519;28;20075;-38
2023/10/29 01:25:50;;;;;;;1.63;0.75;;;13.50;99.90;;;;;;5054363;28;20503;-38
2023/10/29 01:28:16;;;;;;;1.60;0.60;;;13.50;99.90;;;;;;5034720;28;20414;-39
2023/10/29 01:30:41;;;;;;;0.50;0.50;;;13.50;99.90;;;;;;5034785;28;20036;-61
2023/10/29 01:33:07;;;;;;;3.05;0.80;;;13.60;99.90;;;;;;5034281;28;20539;-37
2023/10/29 01:35:33;;;;;;;5.68;0.80;;;13.60;99.90;;;;;;5034225;28;20469;-39
2023/10/29 01:37:58;;;;;;;2.50;0.50;;;13.70;99.90;;;;;;5046534;28;20405;-38
2023/10/29 01:40:24;;;;;;;5.00;0.80;;;13.70;99.90;;;;;;5034746;28;20021;-43
2023/10/29 01:42:50;;;;;;;1.27;0.55;;;13.70;99.90;;;;;;5034221;28;20058;-39
2023/10/29 01:45:17;;;;;;;0.77;0.68;;;13.70;99.90;;;;;;5034060;28;20021;-41
2023/10/29 01:47:43;;;;;;;3.87;1.10;;;13.70;99.90;;;;;;5038281;28;20032;-39
2023/10/29 01:50:09;;;;;;;2.22;0.60;;;13.80;99.90;;;;;;5053779;28;20424;-44
2023/10/29 01:52:38;;;;;;;1.75;0.60;;;13.80;99.90;;;;;;5036076;28;20025;-39
2023/10/29 01:55:05;;;;;;;1.83;0.60;;;13.80;99.90;;;;;;5053682;28;20025;-39
2023/10/29 01:57:32;;;;;;;1.03;0.70;;;13.90;99.90;;;;;;5053755;28;20436;-48
2023/10/29 01:59:58;;;;;;;5.60;1.40;;;13.90;99.90;;;;;;5053658;28;20033;-37
2023/10/29 02:02:24;;;;;;;3.03;0.65;;;13.90;99.90;;;;;;5053498;28;20070;-38
2023/10/29 02:04:50;;;;;;;5.22;0.63;;;13.90;99.90;;;;;;5052328;28;20111;-38
2023/10/29 02:07:16;;;;;;;1.35;0.50;;;13.90;99.90;;;;;;5052309;28;20036;-38
2023/10/29 02:09:41;;;;;;;2.05;0.60;;;13.90;99.90;;;;;;5053388;28;20037;-38
2023/10/29 02:12:07;;;;;;;2.70;0.70;;;13.90;99.90;;;;;;5053655;28;20037;-38
2023/10/29 02:14:36;;;;;;;0.60;0.30;;;13.90;99.90;;;;;;5035492;28;20040;-38
2023/10/29 02:17:02;;;;;;;6.00;0.47;;;13.90;99.90;;;;;;5033690;28;20155;-37
2023/10/29 02:19:27;;;;;;;2.38;0.50;;;13.80;99.90;;;;;;5033373;28;20456;-37
2023/10/29 02:21:54;;;;;;;1.02;0.60;;;13.90;99.90;;;;;;5034070;28;20026;-35
2023/10/29 02:24:20;;;;;;;3.92;0.63;;;13.90;99.90;;;;;;5033385;28;20027;-37
2023/10/29 02:26:45;;;;;;;3.25;0.40;;;13.90;99.90;;;;;;5033314;28;20529;-37
2023/10/29 02:29:11;;;;;;;3.28;0.75;;;13.90;99.90;;;;;;5033177;28;20100;-35
2023/10/29 02:31:37;;;;;;;0.88;0.60;;;13.90;99.90;;;;;;5033242;28;20022;-38
2023/10/29 02:34:02;;;;;;;0.55;0.25;;;13.90;99.90;;;;;;5033455;28;20443;-37
2023/10/29 02:36:28;;;;;;;4.22;0.25;;;13.90;99.90;;;;;;5033167;28;20508;-37
2023/10/29 02:38:54;;;;;;;0.73;0.47;;;13.90;99.90;;;;;;5052153;28;20017;-36
2023/10/29 02:41:19;;;;;;;3.80;0.40;;;14.00;99.90;;;;;;5052805;28;20456;-37
2023/10/29 02:43:45;;;;;;;1.20;0.20;;;14.00;99.90;;;;;;5052842;28;20032;-35
2023/10/29 02:46:11;;;;;;;2.55;0.30;;;14.00;99.90;;;;;;5052861;28;20021;-34
2023/10/29 02:48:36;;;;;;;2.85;0.50;;;14.00;99.90;;;;;;5053124;28;20021;-35
2023/10/29 02:51:02;;;;;;;1.25;0.43;;;14.00;99.90;;;;;;5052958;28;20028;-36
2023/10/29 02:53:28;;;;;;;3.10;0.77;;;13.90;99.90;;;;;;5052621;28;20057;-38
2023/10/29 02:55:58;;;;;;;0.15;0.15;;;13.90;99.90;;;;;;5034024;28;20029;-51
2023/10/29 02:58:24;;;;;;;4.25;0.30;;;13.50;99.90;;;;;;5052718;28;20504;-36
2023/10/29 03:00:50;;;;;;;0.38;0.15;;;13.00;99.90;;;;;;5052657;28;20049;-36
2023/10/29 03:03:15;;;;;;;0.10;0.00;;;12.60;99.90;;;;;;5052597;28;20021;-35
2023/10/29 03:05:41;;;;;;;0.57;0.57;;;12.30;99.90;;;;;;5052563;28;20429;-35
2023/10/29 03:08:06;;;;;;;0.20;0.20;;;12.20;99.90;;;;;;5052503;28;20025;-36
2023/10/29 03:10:32;;;;;;;1.25;0.30;;;12.10;99.90;;;;;;5052639;28;20424;-34
2023/10/29 03:12:58;;;;;;;2.28;0.30;;;12.10;99.90;;;;;;5046193;28;20029;-35
2023/10/29 03:15:24;;;;;;;0.20;0.10;;;12.00;99.90;;;;;;5028054;28;20092;-35
2023/10/29 03:17:50;;;;;;;2.45;0.20;;;12.00;99.90;;;;;;5072423;28;20099;-36
2023/10/29 03:20:16;;;;;;;0.93;0.13;;;12.00;99.90;;;;;;5072450;28;20027;-35
2023/10/29 03:22:42;;;;;;;2.83;0.22;;;12.00;99.90;;;;;;5072399;28;20025;-39
2023/10/29 03:25:08;;;;;;;0.15;0.10;;;12.00;99.90;;;;;;5072497;28;20108;-38
2023/10/29 03:27:34;;;;;;;0.88;0.35;;;12.10;99.90;;;;;;5072508;28;20532;-36
2023/10/29 03:30:00;;;;;;;1.25;0.98;;;12.20;99.90;;;;;;5058941;28;20037;-35
2023/10/29 03:32:25;;;;;;;2.42;0.75;;;12.20;99.90;;;;;;5033016;28;20518;-35
2023/10/29 03:34:51;;;;;;;0.63;0.63;;;12.20;99.90;;;;;;5036524;28;20652;-35
2023/10/29 03:37:18;;;;;;;0.68;0.40;;;12.30;99.90;;;;;;5043202;28;20020;-35
2023/10/29 03:39:43;;;;;;;3.50;0.32;;;12.40;99.90;;;;;;5038769;28;20021;-50
2023/10/29 03:42:09;;;;;;;3.30;0.30;;;12.40;99.90;;;;;;5056126;28;20107;-35
2023/10/29 03:44:35;;;;;;;3.03;0.40;;;12.40;99.90;;;;;;5056203;28;20032;-36
2023/10/29 03:47:01;;;;;;;3.15;0.45;;;12.50;99.90;;;;;;5049925;28;20535;-35
2023/10/29 03:49:26;;;;;;;0.77;0.30;;;12.60;99.90;;;;;;5036168;28;20030;-35
2023/10/29 03:51:52;;;;;;;0.30;0.30;;;12.60;99.90;;;;;;5036152;28;20509;-34
2023/10/29 03:54:17;;;;;;;1.13;0.50;;;12.70;99.90;;;;;;5036035;28;20025;-34
2023/10/29 03:56:43;;;;;;;0.30;0.30;;;12.70;99.90;;;;;;5036112;28;20030;-37
2023/10/29 03:59:09;;;;;;;1.13;0.47;;;12.70;99.90;;;;;;5036082;28;20026;-35
2023/10/29 04:01:35;;;;;;;1.92;0.47;;;12.70;99.90;;;;;;5035978;28;20036;-33
2023/10/29 04:04:03;;;;;;;1.67;0.32;;;12.70;99.90;;;;;;5036467;28;20029;-35
2023/10/29 04:06:29;;;;;;;4.45;0.70;;;12.80;99.90;;;;;;5036173;28;20108;-34
2023/10/29 04:08:55;;;;;;;2.75;1.05;;;12.80;99.90;;;;;;5035614;28;20030;-34
2023/10/29 04:11:20;;;;;;;1.80;0.52;;;12.80;99.90;;;;;;5047598;28;20488;-35
2023/10/29 04:13:47;;;;;;;2.22;0.43;;;12.80;99.90;;;;;;5055655;28;20023;-35
2023/10/29 04:16:13;;;;;;;4.60;0.63;;;12.90;99.90;;;;;;5069068;28;20474;-34
2023/10/29 04:18:39;;;;;;;1.02;0.40;;;13.00;99.90;;;;;;5075685;28;20027;-35
2023/10/29 04:21:06;;;;;;;0.40;0.40;;;13.00;99.90;;;;;;5042762;28;20389;-53
2023/10/29 04:23:32;;;;;;;3.10;1.07;;;13.00;99.90;;;;;;5035613;28;20135;-36
2023/10/29 04:25:58;;;;;;;0.52;0.40;;;13.00;99.90;;;;;;5035582;28;20022;-35
2023/10/29 04:28:23;;;;;;;2.65;0.50;;;13.00;99.90;;;;;;5035535;28;20028;-36
2023/10/29 04:30:49;;;;;;;0.63;0.40;;;13.10;99.90;;;;;;5035398;28;20029;-34
2023/10/29 04:33:15;;;;;;;2.60;0.90;;;13.10;99.90;;;;;;5035694;28;20378;-36
2023/10/29 04:35:40;;;;;;;0.93;0.30;;;13.10;99.90;;;;;;5017642;28;20013;-39
2023/10/29 04:38:06;;;;;;;4.97;0.60;;;13.10;99.90;;;;;;5018190;28;20052;-53
2023/10/29 04:40:32;;;;;;;1.50;0.35;;;13.10;99.90;;;;;;5035493;28;20025;-36
2023/10/29 04:42:58;;;;;;;1.92;0.40;;;13.10;99.90;;;;;;5000946;28;20042;-43
2023/10/29 04:45:23;;;;;;;0.70;0.22;;;13.10;99.90;;;;;;5034029;28;20104;-35
2023/10/29 04:47:49;;;;;;;3.88;0.47;;;13.10;99.90;;;;;;5035183;28;20049;-34
2023/10/29 04:50:15;;;;;;;2.97;0.30;;;13.10;99.90;;;;;;5035040;28;20557;-36
2023/10/29 04:52:41;;;;;;;1.67;0.68;;;13.10;99.90;;;;;;5035022;28;20020;-38
2023/10/29 04:55:07;;;;;;;0.85;0.20;;;13.20;99.90;;;;;;5035750;28;20104;-36
2023/10/29 04:57:33;;;;;;;3.65;0.95;;;13.20;99.90;;;;;;5035206;28;20405;-34
2023/10/29 04:59:58;;;;;;;3.70;0.30;;;13.20;99.90;;;;;;5017189;28;20021;-36
2023/10/29 05:02:24;;;;;;;6.88;1.65;;;13.20;99.90;;;;;;5034974;28;20022;-58
2023/10/29 05:04:51;;;;;;;3.13;0.25;;;13.20;99.90;;;;;;5034845;28;20044;-36
2023/10/29 05:07:17;;;;;;;1.85;0.43;;;13.20;99.90;;;;;;5034951;28;20033;-34
2023/10/29 05:09:43;;;;;;;2.13;0.15;;;13.20;99.90;;;;;;5049929;28;20561;-34
2023/10/29 05:12:09;;;;;;;8.40;0.45;;;13.30;99.90;;;;;;5047089;28;20029;-35
2023/10/29 05:14:34;;;;;;;2.20;0.45;;;13.30;99.90;;;;;;5034705;28;20482;-34
2023/10/29 05:17:00;;;;;;;2.10;0.22;;;13.30;99.90;;;;;;5074410;28;20025;-34
2023/10/29 05:19:26;;;;;;;1.40;0.13;;;13.30;99.90;;;;;;5074449;28;20020;-34
2023/10/29 05:21:52;;;;;;;0.75;0.30;;;13.30;99.90;;;;;;5074705;28;20028;-34
2023/10/29 05:24:17;;;;;;;0.75;0.47;;;13.30;99.90;;;;;;5074368;28;20027;-34
2023/10/29 05:26:43;;;;;;;3.33;0.52;;;13.30;99.90;;;;;;5074328;28;20031;-36
2023/10/29 05:29:09;;;;;;;1.90;0.63;;;13.30;99.90;;;;;;5040955;28;20075;-34
2023/10/29 05:31:34;;;;;;;4.90;0.43;;;13.30;99.90;;;;;;5034559;28;20024;-35
2023/10/29 05:34:01;;;;;;;0.45;0.25;;;13.30;99.90;;;;;;5016535;28;20021;-35
2023/10/29 05:36:27;;;;;;;4.15;0.38;;;13.40;99.90;;;;;;5016507;28;20501;-34
2023/10/29 05:38:53;;;;;;;3.65;0.40;;;13.30;99.90;;;;;;5034238;28;20474;-35
2023/10/29 05:41:19;;;;;;;2.28;0.40;;;13.30;99.90;;;;;;5034083;28;20487;-35
2023/10/29 05:44:03;;;;;;;2.13;0.40;;;13.30;99.90;;;;;;5034111;28;20062;-35
2023/10/29 05:46:29;;;;;;;2.42;0.20;;;13.30;99.90;;;;;;5034542;28;20478;-36
2023/10/29 05:48:55;;;;;;;2.75;1.33;;;13.20;99.90;;;;;;5034124;28;20029;-39
2023/10/29 05:51:21;;;;;;;0.88;0.55;;;13.30;99.90;;;;;;5033926;28;20021;-35
2023/10/29 05:53:47;;;;;;;2.35;0.30;;;13.30;99.90;;;;;;5033839;28;20403;-36
2023/10/29 05:56:13;;;;;;;3.17;0.30;;;13.30;99.90;;;;;;5033539;28;20021;-35
2023/10/29 05:58:38;;;;;;;6.45;0.47;;;13.20;99.90;;;;;;5033822;28;20390;-35
2023/10/29 06:01:05;;;;;;;3.85;0.60;;;13.20;99.90;;;;;;5033730;28;20396;-34
2023/10/29 06:03:31;;;;;;;1.23;0.25;;;13.20;99.90;;;;;;5034198;28;20449;-35
2023/10/29 06:05:56;;;;;;;2.30;0.65;;;13.20;99.90;;;;;;5033689;28;20476;-35
2023/10/29 06:08:22;;;;;;;1.67;0.60;;;13.20;99.90;;;;;;5050951;28;20032;-34
2023/10/29 06:10:50;;;;;;;3.33;0.40;;;13.30;99.90;;;;;;5053519;28;20029;-34
2023/10/29 06:13:15;;;;;;;0.88;0.47;;;13.30;99.90;;;;;;5053484;28;20052;-36
2023/10/29 06:15:41;;;;;;;0.70;0.40;;;13.20;99.90;;;;;;5062377;28;20027;-34
2023/10/29 06:18:06;;;;;;;1.75;0.40;;;13.20;99.90;;;;;;5073325;28;20016;-38
2023/10/29 06:20:33;;;;;;;2.17;0.40;;;13.10;99.90;;;;;;5051008;28;20490;-36
2023/10/29 06:22:59;;;;;;;4.47;0.47;;;13.10;99.90;;;;;;5033435;28;20087;-35
2023/10/29 06:25:25;;;;;;;1.50;0.47;;;13.10;99.90;;;;;;5033312;28;20462;-37
2023/10/29 06:27:50;;;;;;;5.47;0.40;;;13.10;99.90;;;;;;5033324;28;20028;-35
2023/10/29 06:30:35;;;;;;;3.90;0.35;;;13.10;99.90;;;;;;5033182;28;20078;-46
2023/10/29 06:33:01;;;;;;;1.95;0.43;;;13.00;99.90;;;;;;5033210;28;20039;-35
2023/10/29 06:35:28;;;;;;;2.75;0.73;;;13.00;99.90;;;;;;5033445;28;20520;-37
2023/10/29 06:37:53;;;;;;;5.50;0.80;;;13.10;99.90;;;;;;5033631;28;20029;-65
2023/10/29 06:40:19;;;;;;;1.65;0.30;;;13.00;99.90;;;;;;5033123;28;20017;-34
2023/10/29 06:42:45;;;;;;;2.40;0.40;;;13.00;99.90;;;;;;5032967;28;20041;-34
2023/10/29 06:45:11;;;;;;;0.68;0.55;;;13.00;99.90;;;;;;5033046;28;20026;-35
2023/10/29 06:47:37;;;;;;;1.05;0.30;;;13.00;99.90;;;;;;5015249;28;20508;-35
2023/10/29 06:50:03;;;;;;;6.05;0.50;;;13.00;99.90;;;;;;5032926;28;20504;-35
2023/10/29 06:52:28;;;;;;;4.78;0.55;;;12.90;99.90;;;;;;5032923;28;20494;-35
2023/10/29 06:54:54;;;;;;;1.77;0.57;;;12.90;99.90;;;;;;5033351;28;20428;-35
2023/10/29 06:57:20;;;;;;;1.75;0.40;;;12.90;99.90;;;;;;5032895;28;20473;-34
2023/10/29 06:59:45;;;;;;;6.32;1.67;;;12.90;99.90;;;;;;5032928;28;20021;-35
2023/10/29 07:02:11;;;;;;;1.65;0.47;;;12.90;99.90;;;;;;5015065;28;20032;-36
2023/10/29 07:04:37;;;;;;;1.27;0.80;;;12.90;99.90;;;;;;5032833;28;20029;-36
2023/10/29 07:07:02;;;;;;;3.15;0.55;;;12.90;99.90;;;;;;5036212;28;20025;-36
2023/10/29 07:09:28;;;;;;;5.35;0.98;;;12.90;99.90;;;;;;5052660;28;20104;-35
2023/10/29 07:11:55;;;;;;;3.70;0.63;;;12.90;99.90;;;;;;5004590;28;20105;-41
2023/10/29 07:14:21;;;;;;;5.03;0.63;;;12.90;99.90;;;;;;5032784;28;20018;-35
2023/10/29 07:16:47;;;;;;;4.68;0.80;;;12.90;99.90;;;;;;5032765;28;20279;-34
2023/10/29 07:19:14;;;;;;;0.77;0.47;;;12.90;99.90;;;;;;5032916;28;20025;-41
2023/10/29 07:21:40;;;;;;;2.58;0.45;;;12.80;99.90;;;;;;5032698;28;20021;-37
2023/10/29 07:24:06;;;;;;;2.53;0.82;;;12.90;99.90;;;;;;5032829;28;20411;-34
2023/10/29 07:26:33;;;;;;;7.03;0.60;;;12.90;99.90;;;;;;5032652;28;20394;-35
2023/10/29 07:29:01;;;;;;;2.33;0.88;;;12.90;99.90;;;;;;5033065;28;20447;-37
2023/10/29 07:31:27;;;;;;;1.50;0.50;;;12.90;99.90;;;;;;5032592;28;20013;-63
2023/10/29 07:33:53;;;;;;;3.05;0.50;;;12.90;99.90;;;;;;5032599;28;20024;-35
2023/10/29 07:36:20;;;;;;;6.00;0.45;;;12.90;99.90;;;;;;5032533;28;20413;-36
2023/10/29 07:38:46;;;;;;;4.40;0.90;;;12.90;99.90;;;;;;5032547;28;20021;-36
2023/10/29 07:41:18;;;;;;;2.28;0.65;;;12.90;99.90;;;;;;5032212;28;20056;-36
2023/10/29 07:43:43;;;;;;;3.78;0.45;;;13.00;99.90;;;;;;5032458;28;20393;-36
2023/10/29 07:46:09;;;;;;;1.13;0.45;;;13.00;99.90;;;;;;5015286;28;20025;-37
2023/10/29 07:48:35;;;;;;;2.42;0.50;;;13.10;99.90;;;;;;5032719;28;20018;-36
2023/10/29 07:51:00;;;;;;;4.72;1.10;;;13.10;99.90;;;;;;5032411;28;20105;-35
2023/10/29 07:53:30;;;;;;;6.88;1.30;;;13.20;99.90;;;;;;5032598;28;20018;-35
2023/10/29 07:56:06;;;;;;;1.98;0.75;;;13.30;99.90;;;;;;5014637;28;20049;-36
2023/10/29 07:58:32;;;;;;;0.98;0.30;;;13.30;99.90;;;;;;5031042;28;20033;-36
2023/10/29 08:00:58;;;;;;;4.55;1.52;;;13.30;99.90;;;;;;5032322;28;20037;-35
2023/10/29 08:03:23;;;;;;;0.93;0.40;;;13.30;99.90;;;;;;5053282;28;20472;-36
2023/10/29 08:05:52;;;;;;;4.30;0.93;;;13.30;99.90;;;;;;5059343;28;20034;-36
2023/10/29 08:08:19;;;;;;;2.95;0.73;;;13.40;99.90;;;;;;5046758;28;20116;-37
2023/10/29 08:10:45;;;;;;;2.88;0.77;;;13.40;99.90;;;;;;5052316;28;20537;-37
2023/10/29 08:13:10;;;;;;;3.90;1.00;;;13.50;99.90;;;;;;5052109;28;20018;-37
2023/10/29 08:15:39;;;;;;;1.70;0.95;;;13.50;99.90;;;;;;5052051;28;20028;-38
2023/10/29 08:18:05;;;;;;;7.47;1.98;;;13.50;99.90;;;;;;5052083;28;20040;-36
2023/10/29 08:20:31;;;;;;;1.95;0.60;;;13.50;99.90;;;;;;5018747;28;20495;-36
2023/10/29 08:22:57;;;;;;;5.22;0.93;;;13.50;99.90;;;;;;5035648;28;20051;-34
2023/10/29 08:25:22;;;;;;;2.13;0.30;;;13.50;99.90;;;;;;5035644;28;20025;-38
2023/10/29 08:27:48;;;;;;;1.38;0.52;;;13.40;99.90;;;;;;5035522;28;20056;-38
2023/10/29 08:30:14;;;;;;;2.72;0.70;;;13.40;99.90;;;;;;5035319;28;20507;-37
2023/10/29 08:32:39;;;;;;;5.07;0.77;;;13.40;99.90;;;;;;5035399;28;20068;-37
2023/10/29 08:35:08;;;;;;;4.60;0.47;;;13.40;99.90;;;;;;5035291;28;20083;-36
2023/10/29 08:37:34;;;;;;;0.63;0.30;;;13.50;99.90;;;;;;5036101;28;20018;-37
2023/10/29 08:40:01;;;;;;;5.93;0.73;;;13.50;99.90;;;;;;5035595;28;20075;-36
2023/10/29 08:42:30;;;;;;;3.53;1.30;;;13.40;99.90;;;;;;5035091;28;20042;-37
2023/10/29 08:44:56;;;;;;;2.88;1.33;;;13.40;99.90;;;;;;5035197;28;20030;-38
2023/10/29 08:47:23;;;;;;;3.55;0.30;;;13.40;99.90;;;;;;5035126;28;20390;-39
2023/10/29 08:49:49;;;;;;;2.03;1.15;;;13.40;99.90;;;;;;5035051;28;20033;-38
2023/10/29 08:52:14;;;;;;;4.43;0.65;;;13.40;99.90;;;;;;5035431;28;20021;-38
2023/10/29 08:54:40;;;;;;;6.43;0.98;;;13.40;99.90;;;;;;5035037;28;20021;-38
2023/10/29 08:57:06;;;;;;;6.40;0.80;;;13.40;99.90;;;;;;5035229;28;20537;-37
2023/10/29 08:59:32;;;;;;;1.90;0.65;;;13.50;99.90;;;;;;5039219;28;20465;-38
2023/10/29 09:01:57;;;;;;;10.93;0.93;;;13.60;99.90;;;;;;5054555;28;20025;-38
2023/10/29 09:04:23;;;;;;;5.18;1.23;;;13.60;99.90;;;;;;5052875;28;20489;-37
2023/10/29 09:06:49;;;;;;;3.03;0.80;;;13.60;99.90;;;;;;5049499;28;20438;-38
2023/10/29 09:09:14;;;;;;;3.35;0.70;;;13.80;99.90;;;;;;5054333;28;20087;-38
2023/10/29 09:11:43;;;;;;;4.78;1.45;;;13.90;99.90;;;;;;5034785;28;20021;-39
2023/10/29 09:14:11;;;;;;;5.60;1.25;;;14.00;99.90;;;;;;5034644;28;20028;-39
2023/10/29 09:16:36;;;;;;;;;;;14.00;99.90;;;;;;5035064;28;20108;-42
2023/10/29 09:19:03;;;;;;;3.88;0.98;;;14.00;99.90;;;;;;5034616;28;20333;-38
2023/10/29 09:21:29;;;;;;;0.68;0.35;;;14.00;99.90;;;;;;5036500;28;20014;-37
2023/10/29 09:23:54;;;;;;;13.48;1.08;;;14.00;99.90;;;;;;5046691;28;20100;-39
2023/10/29 09:26:20;;;;;;;5.10;0.73;;;14.00;99.90;;;;;;5054242;28;20025;-37
2023/10/29 09:28:45;;;;;;;9.75;0.63;;;14.00;99.90;;;;;;5053683;28;20052;-38
2023/10/29 09:31:18;;;;;;;7.93;0.98;;;14.00;99.90;;;;;;5052774;28;20470;-39
2023/10/29 09:33:44;;;;;;;6.47;0.93;;;13.90;99.90;;;;;;5051765;28;20373;-48
2023/10/29 09:36:10;;;;;;;5.43;0.98;;;14.00;99.90;;;;;;5036316;28;20021;-39
2023/10/29 09:38:36;;;;;;;6.85;0.90;;;14.00;99.90;;;;;;5053990;28;20043;-67
2023/10/29 09:41:02;;;;;;;7.07;0.98;;;14.00;99.90;;;;;;5028964;28;20386;-35
2023/10/29 09:43:36;;;;;;;5.85;0.98;;;14.00;99.90;;;;;;5034037;28;20040;-38
2023/10/29 09:46:05;;;;;;;3.50;0.88;;;14.00;99.90;;;;;;5034108;28;20064;-38
2023/10/29 09:48:33;;;;;;;0.80;0.70;;;14.10;99.90;;;;;;5034344;28;20029;-41
2023/10/29 09:51:00;;;;;;;3.22;0.95;;;14.10;99.90;;;;;;5050452;28;20348;-40
2023/10/29 09:53:28;;;;;;;6.30;1.20;;;14.10;99.90;;;;;;5050444;28;20033;-37
2023/10/29 09:55:54;;;;;;;2.33;0.60;;;14.10;99.90;;;;;;5054046;28;20376;-41
2023/10/29 09:58:22;;;;;;;5.70;1.00;;;14.10;99.90;;;;;;5053721;28;20024;-39
2023/10/29 10:00:49;;;;;;;8.60;0.82;;;14.10;99.90;;;;;;5051653;28;20063;-45
2023/10/29 10:03:16;;;;;;;3.85;0.50;;;14.10;99.90;;;;;;5052282;28;20061;-41
2023/10/29 10:05:42;;;;;;;6.45;1.08;;;14.10;99.90;;;;;;5048101;28;20038;-39
2023/10/29 10:08:12;;;;;;;6.95;1.15;;;14.10;99.90;;;;;;5033928;28;20470;-39
2023/10/29 10:10:43;;;;;;;7.15;1.15;;;14.00;99.90;;;;;;5049469;28;20025;-39
2023/10/29 10:13:10;;;;;;;4.53;0.90;;;14.00;99.90;;;;;;5053504;28;20077;-35
2023/10/29 10:15:37;;;;;;;5.30;0.82;;;14.00;99.90;;;;;;5053370;28;20025;-37
2023/10/29 10:18:05;;;;;;;12.53;0.93;;;14.10;99.90;;;;;;5052872;28;20021;-38
2023/10/29 10:20:32;;;;;;;2.78;0.82;;;14.20;99.90;;;;;;5035504;28;20075;-39
2023/10/29 10:23:11;;;;;;;6.88;1.80;;;14.20;99.90;;;;;;5053316;28;20583;-37
2023/10/29 10:25:37;;;;;;;10.18;1.25;;;14.20;99.90;;;;;;5035356;28;20452;-37
2023/10/29 10:28:04;;;;;;;4.47;1.20;;;14.20;99.90;;;;;;5053183;28;20504;-38
2023/10/29 10:30:36;;;;;;;10.10;1.48;;;14.30;99.90;;;;;;5051413;28;20033;-38
2023/10/29 10:33:14;;;;;;;2.55;0.85;;;14.40;99.90;;;;;;5051344;28;20020;-39
2023/10/29 10:35:45;;;;;;;8.48;0.77;;;14.50;99.90;;;;;;5052945;28;20036;-37
2023/10/29 10:38:15;;;;;;;10.23;2.20;;;14.60;99.90;;;;;;5053326;28;20032;-41
2023/10/29 10:40:41;;;;;;;5.95;0.90;;;14.70;99.90;;;;;;5053233;28;20087;-36
2023/10/29 10:43:07;;;;;;;7.97;0.98;;;14.80;99.90;;;;;;5051885;28;20044;-37
2023/10/29 10:45:35;;;;;;;9.18;2.20;;;14.90;99.90;;;;;;5052936;28;20025;-43
2023/10/29 10:48:07;;;;;;;4.70;0.98;;;14.90;99.90;;;;;;5048597;28;20643;-39
2023/10/29 10:50:34;;;;;;;3.90;1.05;;;14.80;99.90;;;;;;5052081;28;20550;-36
2023/10/29 10:53:01;;;;;;;5.15;0.85;;;14.80;99.90;;;;;;5053099;28;20043;-40
2023/10/29 10:55:28;;;;;;;9.38;0.80;;;14.80;99.90;;;;;;5052798;28;20107;-38
2023/10/29 10:57:55;;;;;;;5.30;1.20;;;14.90;99.90;;;;;;5052837;28;20405;-42
2023/10/29 11:00:22;;;;;;;4.57;1.10;;;14.80;99.90;;;;;;5052758;28;20057;-38
2023/10/29 11:02:49;;;;;;;6.13;1.00;;;14.80;99.90;;;;;;5050872;28;20044;-39
2023/10/29 11:05:15;;;;;;;10.88;1.55;;;14.80;99.90;;;;;;5052549;28;20485;-39
2023/10/29 11:07:43;;;;;;;6.57;0.93;;;14.80;99.90;;;;;;5052544;28;20509;-38
2023/10/29 11:10:12;;;;;;;9.13;0.65;;;14.80;99.90;;;;;;5052470;28;20032;-40
2023/10/29 11:12:38;;;;;;;4.63;1.10;;;14.80;99.90;;;;;;5052540;28;20033;-37
2023/10/29 11:15:20;;;;;;;6.20;1.20;;;14.90;99.90;;;;;;5052574;28;20017;-35
2023/10/29 11:17:57;;;;;;;8.05;1.00;;;14.80;99.90;;;;;;5050832;28;20095;-37
2023/10/29 11:20:49;;;;;;;4.63;1.00;;;14.80;99.90;;;;;;5048448;28;20029;-39
2023/10/29 11:23:16;;;;;;;9.63;1.25;;;14.80;99.90;;;;;;5052798;28;20090;-40
2023/10/29 11:25:42;;;;;;;2.88;0.70;;;14.70;99.90;;;;;;5052502;28;20523;-38
2023/10/29 11:28:23;;;;;;;14.63;1.60;;;14.80;99.90;;;;;;5052347;28;20033;-39
2023/10/29 11:31:18;;;;;;;8.35;2.25;;;14.70;99.90;;;;;;5050666;28;20392;-45
2023/10/29 11:33:56;;;;;;;7.45;1.35;;;14.70;99.90;;;;;;5031572;28;20043;-43
2023/10/29 11:36:34;;;;;;;5.88;1.02;;;14.80;99.90;;;;;;5052308;28;20029;-38
2023/10/29 11:39:15;;;;;;;9.07;1.88;;;14.70;99.90;;;;;;5041581;28;20033;-43
2023/10/29 11:41:52;;;;;;;4.63;1.27;;;14.80;99.90;;;;;;5018515;28;20037;-41
2023/10/29 11:44:18;;;;;;;19.70;0.90;;;14.80;99.90;;;;;;5049201;28;20381;-39
2023/10/29 11:46:58;;;;;;;11.27;1.42;;;14.80;99.90;;;;;;5050612;28;20022;-40
2023/10/29 11:49:27;;;;;;;3.95;0.65;;;14.90;99.90;;;;;;5052485;28;20500;-41
2023/10/29 11:52:03;;;;;;;22.85;2.05;;;14.80;99.90;;;;;;5038673;28;20021;-40
2023/10/29 11:54:32;;;;;;;5.20;1.25;;;14.80;99.90;;;;;;5034427;28;20026;-41
2023/10/29 11:56:58;;;;;;;8.35;2.10;;;14.80;99.90;;;;;;5036112;28;20029;-43
2023/10/29 11:59:25;;;;;;;5.82;2.15;;;14.80;99.90;;;;;;5036068;28;20033;-39
2023/10/29 12:01:52;;;;;;;10.23;2.28;;;14.80;99.90;;;;;;5040373;28;20494;-42
2023/10/29 12:04:20;;;;;;;8.13;1.27;;;14.80;99.90;;;;;;5055815;28;20025;-64
2023/10/29 12:06:50;;;;;;;10.18;1.15;;;14.80;99.90;;;;;;5041472;28;20026;-41
2023/10/29 12:09:21;;;;;;;7.15;1.30;;;14.90;99.90;;;;;;5035731;28;20501;-42
2023/10/29 12:11:49;;;;;;;10.93;1.00;;;15.00;99.90;;;;;;5049023;28;20493;-40
2023/10/29 12:14:15;;;;;;;6.45;1.20;;;15.10;99.90;;;;;;5055941;28;20017;-41
2023/10/29 12:16:41;;;;;;;7.15;1.23;;;15.10;99.90;;;;;;5054752;28;20029;-43
2023/10/29 12:19:07;;;;;;;9.00;1.17;;;15.00;99.90;;;;;;5037770;28;20029;-44
2023/10/29 12:21:33;;;;;;;3.10;1.15;;;15.00;99.90;;;;;;5055608;28;20477;-63
2023/10/29 12:23:59;;;;;;;7.35;1.45;;;14.90;99.90;;;;;;5053753;28;20021;-45
2023/10/29 12:26:28;;;;;;;7.45;1.08;;;14.80;99.90;;;;;;5055398;28;20032;-41
2023/10/29 12:28:54;;;;;;;3.55;1.20;;;14.80;99.90;;;;;;5055604;28;20528;-43
2023/10/29 12:31:27;;;;;;;10.82;1.60;;;14.70;99.90;;;;;;5053667;28;20109;-41
2023/10/29 12:33:57;;;;;;;6.25;0.80;;;14.70;99.90;;;;;;5055357;28;20120;-45
2023/10/29 12:36:24;;;;;;;5.78;0.60;;;14.70;99.90;;;;;;5055264;28;20049;-44
2023/10/29 12:38:50;;;;;;;7.20;1.10;;;14.70;99.90;;;;;;5055233;28;20025;-42
2023/10/29 12:41:16;;;;;;;4.68;1.17;;;14.70;99.90;;;;;;5055072;28;20115;-43
2023/10/29 12:43:47;;;;;;;11.82;1.45;;;14.90;99.90;;;;;;5055165;28;20541;-44